createdAt,value
2018-07-02T00:01:22.049Z,1.20
2018-07-02T00:03:50.361Z,1.30
2018-07-02T00:06:39.237Z,0.90
2018-07-02T00:09:07.689Z,0.97
2018-07-02T00:11:35.989Z,0.97
2018-07-02T00:14:04.294Z,0.93
2018-07-02T00:16:32.613Z,1.10
2018-07-02T00:19:00.873Z,1.37
2018-07-02T00:21:29.259Z,0.97
2018-07-02T00:23:57.508Z,1.13
2018-07-02T00:26:25.801Z,0.90
2018-07-02T00:28:54.161Z,0.90
2018-07-02T00:31:22.449Z,1.07
2018-07-02T00:33:50.712Z,1.10
2018-07-02T00:36:19.009Z,0.83
2018-07-02T00:38:47.285Z,0.70
2018-07-02T00:41:15.557Z,0.80
2018-07-02T00:43:43.846Z,1.00
2018-07-02T00:46:12.102Z,0.90
2018-07-02T00:48:40.386Z,0.90
2018-07-02T00:51:08.651Z,1.53
2018-07-02T00:53:37.096Z,1.47
2018-07-02T00:56:05.605Z,1.03
2018-07-02T00:58:33.889Z,1.20
2018-07-02T01:01:02.245Z,1.50
2018-07-02T01:03:30.574Z,1.07
2018-07-02T01:05:58.829Z,0.80
2018-07-02T01:08:27.135Z,1.07
2018-07-02T01:10:55.412Z,1.43
2018-07-02T01:13:23.788Z,1.20
2018-07-02T01:15:52.133Z,1.00
2018-07-02T01:18:20.421Z,0.90
2018-07-02T01:20:48.682Z,0.93
2018-07-02T01:23:17.028Z,0.73
2018-07-02T01:25:45.316Z,1.07
2018-07-02T01:28:13.600Z,1.07
2018-07-02T01:30:42.014Z,0.97
2018-07-02T01:33:10.274Z,0.90
2018-07-02T01:35:38.556Z,1.03
2018-07-02T01:38:06.852Z,1.10
2018-07-02T01:40:35.132Z,0.90
2018-07-02T01:43:03.421Z,0.70
2018-07-02T01:45:31.713Z,0.97
2018-07-02T01:47:59.970Z,1.03
2018-07-02T01:50:28.257Z,1.10
2018-07-02T01:52:56.521Z,1.03
2018-07-02T01:55:24.807Z,1.47
2018-07-02T01:57:53.068Z,0.73
2018-07-02T02:00:21.364Z,0.73
2018-07-02T02:02:49.676Z,1.00
2018-07-02T02:05:17.976Z,0.93
2018-07-02T02:07:46.260Z,1.10
2018-07-02T02:10:14.572Z,0.60
2018-07-02T02:12:42.840Z,0.60
2018-07-02T02:15:11.216Z,0.70
2018-07-02T02:17:39.497Z,1.00
2018-07-02T02:20:07.849Z,1.00
2018-07-02T02:22:36.118Z,0.70
2018-07-02T02:25:04.702Z,0.80
2018-07-02T02:27:33.005Z,0.97
2018-07-02T02:30:01.581Z,1.00
2018-07-02T02:32:29.900Z,0.80
2018-07-02T02:34:58.169Z,0.90
2018-07-02T02:37:26.461Z,0.87
2018-07-02T02:39:54.728Z,0.60
2018-07-02T02:42:23.027Z,0.77
2018-07-02T02:44:51.328Z,0.83
2018-07-02T02:47:19.639Z,0.80
2018-07-02T02:49:47.898Z,0.90
2018-07-02T02:52:16.201Z,1.13
2018-07-02T02:54:44.472Z,0.90
2018-07-02T02:57:13.044Z,1.00
2018-07-02T02:59:41.314Z,1.13
2018-07-02T03:02:09.707Z,1.50
2018-07-02T03:04:38.026Z,1.50
2018-07-02T03:07:06.765Z,1.27
2018-07-02T03:09:35.169Z,1.10
2018-07-02T03:12:03.457Z,1.37
2018-07-02T03:14:32.056Z,1.40
2018-07-02T03:17:00.457Z,2.00
2018-07-02T03:19:28.781Z,1.77
2018-07-02T03:23:00.384Z,1.40
2018-07-02T03:25:28.689Z,1.50
2018-07-02T03:27:56.994Z,2.20
2018-07-02T03:30:25.341Z,1.43
2018-07-02T03:32:53.589Z,1.90
2018-07-02T03:35:22.003Z,1.70
2018-07-02T03:37:50.282Z,1.67
2018-07-02T03:40:19.576Z,1.20
2018-07-02T03:42:47.918Z,0.97
2018-07-02T03:45:16.201Z,1.03
2018-07-02T03:47:44.461Z,1.20
2018-07-02T03:50:12.789Z,1.37
2018-07-02T03:52:41.051Z,0.90
2018-07-02T03:55:09.341Z,1.13
2018-07-02T03:57:37.605Z,0.90
2018-07-02T04:00:05.953Z,0.90
2018-07-02T04:02:34.317Z,1.00
2018-07-02T04:05:02.604Z,1.30
2018-07-02T04:07:30.957Z,1.50
2018-07-02T04:09:59.237Z,1.17
2018-07-02T04:12:27.504Z,1.10
2018-07-02T04:14:55.797Z,1.87
2018-07-02T04:17:24.049Z,1.20
2018-07-02T04:19:52.365Z,1.20
2018-07-02T04:22:20.625Z,1.10
2018-07-02T04:24:48.980Z,1.07
2018-07-02T04:27:17.252Z,0.87
2018-07-02T04:29:45.540Z,0.83
2018-07-02T04:32:13.861Z,1.20
2018-07-02T04:34:42.130Z,1.33
2018-07-02T04:37:10.418Z,1.20
2018-07-02T04:39:38.677Z,0.87
2018-07-02T04:42:07.013Z,1.10
2018-07-02T04:44:35.281Z,1.43
2018-07-02T04:47:03.568Z,1.20
2018-07-02T04:49:31.830Z,1.20
2018-07-02T04:52:00.148Z,1.00
2018-07-02T04:54:28.421Z,1.13
2018-07-02T04:56:56.730Z,1.03
2018-07-02T04:59:24.985Z,1.27
2018-07-02T05:01:53.386Z,1.73
2018-07-02T05:04:21.737Z,1.27
2018-07-02T05:06:50.017Z,1.07
2018-07-02T05:09:18.281Z,1.20
2018-07-02T05:11:46.581Z,2.37
2018-07-02T05:14:14.930Z,1.90
2018-07-02T05:16:43.252Z,1.13
2018-07-02T05:19:11.529Z,1.27
2018-07-02T05:21:39.895Z,0.90
2018-07-02T05:24:07.841Z,0.70
2018-07-02T05:26:36.085Z,1.10
2018-07-02T05:29:04.394Z,0.90
2018-07-02T05:31:32.670Z,0.77
2018-07-02T05:34:00.953Z,0.83
2018-07-02T05:36:29.512Z,0.70
2018-07-02T05:38:58.012Z,0.93
2018-07-02T05:41:26.289Z,0.60
2018-07-02T05:43:54.597Z,0.60
2018-07-02T05:46:23.273Z,0.77
2018-07-02T05:48:51.605Z,0.90
2018-07-02T05:51:19.895Z,0.80
2018-07-02T05:53:48.209Z,0.80
2018-07-02T05:56:16.497Z,0.70
2018-07-02T05:58:44.818Z,0.60
2018-07-02T06:01:13.095Z,1.17
2018-07-02T06:03:41.423Z,1.23
2018-07-02T06:06:09.750Z,0.73
2018-07-02T06:08:38.062Z,0.70
2018-07-02T06:11:06.349Z,0.60
2018-07-02T06:16:33.614Z,0.80
2018-07-02T06:19:01.913Z,0.50
2018-07-02T06:21:30.189Z,0.60
2018-07-02T06:23:58.510Z,0.83
2018-07-02T06:26:26.979Z,0.60
2018-07-02T06:28:55.325Z,0.50
2018-07-02T06:31:23.613Z,0.50
2018-07-02T06:33:51.889Z,0.50
2018-07-02T06:36:20.378Z,0.70
2018-07-02T06:38:48.697Z,0.70
2018-07-02T06:41:17.021Z,0.70
2018-07-02T06:43:45.273Z,1.00
2018-07-02T06:46:13.607Z,0.70
2018-07-02T06:48:41.889Z,0.53
2018-07-02T06:51:11.209Z,0.50
2018-07-02T06:53:39.485Z,1.00
2018-07-02T06:56:07.765Z,0.80
2018-07-02T06:58:36.072Z,0.50
2018-07-02T07:01:04.320Z,0.60
2018-07-02T07:03:32.597Z,0.50
2018-07-02T07:06:01.008Z,0.70
2018-07-02T07:08:29.319Z,0.50
2018-07-02T07:10:57.598Z,0.57
2018-07-02T07:13:25.861Z,0.60
2018-07-02T07:15:54.192Z,0.70
2018-07-02T07:18:22.465Z,1.43
2018-07-02T07:20:50.813Z,0.60
2018-07-02T07:23:19.093Z,1.10
2018-07-02T07:25:47.384Z,0.80
2018-07-02T07:28:15.660Z,0.50
2018-07-02T07:30:43.929Z,0.50
2018-07-02T07:33:12.301Z,0.90
2018-07-02T07:35:40.576Z,0.50
2018-07-02T07:38:08.877Z,0.57
2018-07-02T07:40:37.148Z,0.60
2018-07-02T07:43:05.461Z,0.40
2018-07-02T07:45:33.717Z,0.63
2018-07-02T07:48:02.022Z,0.70
2018-07-02T07:50:30.277Z,0.80
2018-07-02T07:52:58.578Z,0.87
2018-07-02T07:55:26.844Z,0.80
2018-07-02T07:57:55.167Z,2.20
2018-07-02T08:00:23.442Z,3.70
2018-07-02T08:02:51.750Z,2.80
2018-07-02T08:05:20.018Z,1.60
2018-07-02T08:07:48.319Z,1.17
2018-07-02T08:10:16.629Z,1.33
2018-07-02T08:12:44.926Z,0.97
2018-07-02T08:15:13.178Z,0.80
2018-07-02T08:17:41.497Z,0.60
2018-07-02T08:20:09.800Z,0.90
2018-07-02T08:22:38.060Z,0.90
2018-07-02T08:25:06.469Z,0.80
2018-07-02T08:27:34.745Z,0.80
2018-07-02T08:30:03.401Z,0.57
2018-07-02T08:32:31.733Z,0.60
2018-07-02T08:35:00.081Z,0.73
2018-07-02T08:37:28.328Z,0.90
2018-07-02T08:39:56.709Z,0.53
2018-07-02T08:42:24.961Z,0.60
2018-07-02T08:44:53.248Z,0.73
2018-07-02T08:47:21.545Z,1.10
2018-07-02T08:49:49.909Z,1.07
2018-07-02T08:52:18.185Z,0.73
2018-07-02T08:54:46.534Z,0.50
2018-07-02T08:57:14.801Z,1.03
2018-07-02T08:59:43.184Z,0.50
2018-07-02T09:02:11.495Z,0.80
2018-07-02T09:04:39.964Z,0.70
2018-07-02T09:07:08.300Z,0.50
2018-07-02T09:09:36.674Z,0.50
2018-07-02T09:12:04.981Z,0.70
2018-07-02T09:14:33.250Z,0.70
2018-07-02T09:17:01.637Z,0.70
2018-07-02T09:19:30.910Z,1.23
2018-07-02T09:21:59.318Z,0.70
2018-07-02T09:24:27.640Z,0.40
2018-07-02T09:26:55.922Z,0.60
2018-07-02T09:29:24.220Z,0.73
2018-07-02T09:31:52.549Z,0.90
2018-07-02T09:34:20.800Z,0.67
2018-07-02T09:36:49.101Z,1.03
2018-07-02T09:39:17.386Z,0.70
2018-07-02T09:41:45.689Z,0.90
2018-07-02T09:44:13.989Z,0.63
2018-07-02T09:46:42.306Z,0.90
2018-07-02T09:49:10.584Z,1.10
2018-07-02T09:51:39.155Z,0.80
2018-07-02T09:54:07.432Z,0.50
2018-07-02T09:56:35.717Z,0.80
2018-07-02T09:59:04.000Z,0.60
2018-07-02T10:01:32.270Z,0.73
2018-07-02T10:04:00.600Z,0.53
2018-07-02T10:06:28.933Z,0.70
2018-07-02T10:08:57.189Z,0.63
2018-07-02T10:11:25.497Z,0.90
2018-07-02T10:13:53.861Z,1.10
2018-07-02T10:16:22.177Z,0.80
2018-07-02T10:18:50.472Z,0.50
2018-07-02T10:21:18.848Z,0.93
2018-07-02T10:23:47.132Z,0.83
2018-07-02T10:26:15.505Z,1.30
2018-07-02T10:28:43.780Z,0.87
2018-07-02T10:31:12.099Z,0.60
2018-07-02T10:33:40.332Z,0.80
2018-07-02T10:36:08.592Z,1.03
2018-07-02T10:38:36.884Z,0.80
2018-07-02T10:41:05.169Z,0.67
2018-07-02T10:43:33.446Z,1.00
2018-07-02T10:46:01.705Z,1.10
2018-07-02T10:49:00.954Z,0.90
2018-07-02T10:51:29.278Z,1.30
2018-07-02T10:53:57.771Z,1.00
2018-07-02T10:56:26.013Z,0.50
2018-07-02T10:58:54.313Z,1.13
2018-07-02T11:01:22.603Z,0.70
2018-07-02T11:03:50.885Z,0.70
2018-07-02T11:06:19.256Z,1.00
2018-07-02T11:08:47.567Z,0.60
2018-07-02T11:11:15.915Z,0.70
2018-07-02T11:13:44.262Z,1.63
2018-07-02T11:16:12.547Z,0.87
2018-07-02T11:18:40.795Z,0.80
2018-07-02T11:21:09.101Z,0.70
2018-07-02T11:23:37.374Z,0.70
2018-07-02T11:26:05.671Z,0.60
2018-07-02T11:28:33.933Z,0.60
2018-07-02T11:31:02.329Z,0.87
2018-07-02T11:33:30.674Z,0.60
2018-07-02T11:35:58.965Z,0.70
2018-07-02T11:38:27.257Z,0.73
2018-07-02T11:40:55.554Z,0.40
2018-07-02T11:43:23.849Z,0.60
2018-07-02T11:45:52.226Z,0.60
2018-07-02T11:48:20.481Z,0.50
2018-07-02T11:50:48.765Z,0.80
2018-07-02T11:53:17.025Z,0.50
2018-07-02T11:55:45.289Z,0.63
2018-07-02T11:58:13.670Z,1.07
2018-07-02T12:00:41.930Z,0.50
2018-07-02T12:03:10.241Z,0.60
2018-07-02T12:05:38.513Z,0.57
2018-07-02T12:08:06.876Z,0.67
2018-07-02T12:10:35.133Z,0.53
2018-07-02T12:13:03.525Z,0.60
2018-07-02T12:15:31.799Z,0.57
2018-07-02T12:18:00.096Z,0.50
2018-07-02T12:20:28.381Z,0.40
2018-07-02T12:22:56.666Z,0.60
2018-07-02T12:25:24.932Z,0.50
2018-07-02T12:27:53.234Z,0.50
2018-07-02T12:30:21.496Z,0.63
2018-07-02T12:32:49.781Z,0.90
2018-07-02T12:35:18.037Z,0.40
2018-07-02T12:37:46.321Z,0.73
2018-07-02T12:40:14.581Z,0.50
2018-07-02T12:42:42.873Z,0.73
2018-07-02T12:45:11.133Z,0.50
2018-07-02T12:47:39.429Z,0.40
2018-07-02T12:50:08.028Z,0.50
2018-07-02T12:52:36.237Z,0.60
2018-07-02T12:55:04.533Z,0.50
2018-07-02T12:57:32.799Z,0.73
2018-07-02T13:00:01.109Z,0.30
2018-07-02T13:02:29.357Z,0.50
2018-07-02T13:04:57.671Z,0.70
2018-07-02T13:07:25.922Z,0.80
2018-07-02T13:09:55.234Z,0.57
2018-07-02T13:12:23.493Z,0.67
2018-07-02T13:14:51.805Z,0.43
2018-07-02T13:17:20.064Z,0.53
2018-07-02T13:19:48.413Z,0.83
2018-07-02T13:22:16.666Z,0.60
2018-07-02T13:24:44.949Z,0.47
2018-07-02T13:27:13.204Z,0.80
2018-07-02T13:29:41.757Z,0.40
2018-07-02T13:32:10.035Z,0.70
2018-07-02T13:34:38.329Z,0.53
2018-07-02T13:37:06.794Z,0.70
2018-07-02T13:39:34.946Z,0.63
2018-07-02T13:42:03.249Z,0.60
2018-07-02T13:44:31.534Z,0.47
2018-07-02T13:47:01.226Z,0.63
2018-07-02T13:49:31.278Z,0.70
2018-07-02T13:52:00.098Z,1.40
2018-07-02T13:54:28.345Z,0.60
2018-07-02T13:56:56.625Z,0.57
2018-07-02T13:59:25.004Z,0.57
2018-07-02T14:01:56.259Z,0.70
2018-07-02T14:04:36.993Z,0.67
2018-07-02T14:07:20.498Z,0.50
2018-07-02T14:09:48.762Z,0.40
2018-07-02T14:12:17.146Z,0.40
2018-07-02T14:14:45.397Z,0.65
2018-07-02T14:17:13.689Z,0.50
2018-07-02T14:19:41.976Z,0.50
2018-07-02T14:22:10.281Z,0.40
2018-07-02T14:24:38.673Z,0.50
2018-07-02T14:27:06.988Z,0.50
2018-07-02T14:29:35.333Z,0.43
2018-07-02T14:32:03.618Z,0.70
2018-07-02T14:34:31.878Z,0.63
2018-07-02T14:37:00.241Z,0.60
2018-07-02T14:39:28.546Z,0.43
2018-07-02T14:41:56.862Z,0.60
2018-07-02T14:44:25.125Z,0.57
2018-07-02T14:46:53.413Z,1.03
2018-07-02T14:49:21.957Z,0.53
2018-07-02T14:51:50.280Z,0.73
2018-07-02T14:54:18.602Z,0.60
2018-07-02T14:56:46.874Z,0.60
2018-07-02T14:59:16.086Z,0.40
2018-07-02T15:01:44.377Z,0.50
2018-07-02T15:04:13.714Z,0.50
2018-07-02T15:09:32.437Z,1.03
2018-07-02T15:12:00.691Z,0.60
2018-07-02T15:14:29.957Z,0.70
2018-07-02T15:16:58.230Z,1.00
2018-07-02T15:19:26.504Z,0.67
2018-07-02T15:21:55.181Z,0.67
2018-07-02T15:24:23.776Z,0.50
2018-07-02T15:26:52.285Z,0.57
2018-07-02T15:29:20.553Z,0.70
2018-07-02T15:31:48.829Z,0.67
2018-07-02T15:34:17.086Z,0.50
2018-07-02T15:36:45.341Z,0.40
2018-07-02T15:39:13.634Z,0.53
2018-07-02T15:41:41.983Z,0.60
2018-07-02T15:44:11.203Z,0.50
2018-07-02T15:46:39.464Z,0.80
2018-07-02T15:49:07.877Z,0.50
2018-07-02T15:51:37.129Z,0.40
2018-07-02T15:54:05.445Z,0.83
2018-07-02T15:56:33.775Z,0.60
2018-07-02T15:59:02.050Z,0.60
2018-07-02T16:01:30.445Z,0.63
2018-07-02T16:03:58.769Z,0.57
2018-07-02T16:06:27.070Z,0.50
2018-07-02T16:08:55.329Z,0.70
2018-07-02T16:11:23.634Z,0.43
2018-07-02T16:13:51.991Z,0.77
2018-07-02T16:16:20.261Z,0.70
2018-07-02T16:18:48.518Z,0.67
2018-07-02T16:21:16.790Z,0.50
2018-07-02T16:23:45.030Z,0.70
2018-07-02T16:26:13.345Z,0.60
2018-07-02T16:28:42.692Z,0.40
2018-07-02T16:31:11.013Z,0.57
2018-07-02T16:33:39.258Z,0.63
2018-07-02T16:36:07.529Z,0.63
2018-07-02T16:38:35.765Z,1.00
2018-07-02T16:41:04.069Z,0.50
2018-07-02T16:43:32.317Z,0.60
2018-07-02T16:46:00.613Z,0.50
2018-07-02T16:48:28.878Z,0.80
2018-07-02T16:50:57.142Z,0.70
2018-07-02T16:53:25.457Z,0.60
2018-07-02T16:55:53.745Z,0.67
2018-07-02T16:58:22.052Z,0.77
2018-07-02T17:00:50.353Z,0.57
2018-07-02T17:03:18.676Z,0.60
2018-07-02T17:05:48.294Z,0.40
2018-07-02T17:08:16.583Z,0.90
2018-07-02T17:10:44.887Z,0.80
2018-07-02T17:13:13.236Z,0.83
2018-07-02T17:15:41.605Z,0.70
2018-07-02T17:18:09.874Z,0.67
2018-07-02T17:20:38.122Z,1.03
2018-07-02T17:23:06.562Z,0.90
2018-07-02T17:25:34.839Z,0.50
2018-07-02T17:32:51.437Z,0.73
2018-07-02T17:35:20.713Z,1.20
2018-07-02T17:37:49.097Z,0.60
2018-07-02T17:40:17.401Z,1.07
2018-07-02T17:42:46.666Z,1.00
2018-07-02T17:45:15.933Z,0.60
2018-07-02T17:47:45.281Z,0.70
2018-07-02T17:50:13.569Z,0.77
2018-07-02T17:52:41.934Z,0.77
2018-07-02T17:55:10.229Z,0.80
2018-07-02T17:57:38.578Z,0.97
2018-07-02T18:00:07.232Z,0.70
2018-07-02T18:02:35.493Z,1.87
2018-07-02T18:05:03.937Z,1.07
2018-07-02T18:07:32.289Z,0.80
2018-07-02T18:10:00.566Z,1.30
2018-07-02T18:12:28.809Z,1.30
2018-07-02T18:14:57.157Z,1.00
2018-07-02T18:17:25.521Z,0.70
2018-07-02T18:19:53.749Z,1.20
2018-07-02T18:22:22.005Z,0.90
2018-07-02T18:24:50.325Z,0.93
2018-07-02T18:27:18.602Z,0.90
2018-07-02T18:29:46.881Z,1.00
2018-07-02T18:32:15.181Z,0.90
2018-07-02T18:34:43.465Z,1.20
2018-07-02T18:37:11.833Z,0.97
2018-07-02T18:39:40.105Z,1.43
2018-07-02T18:42:08.358Z,1.10
2018-07-02T18:44:36.645Z,1.40
2018-07-02T18:47:05.056Z,1.20
2018-07-02T18:49:33.361Z,1.00
2018-07-02T18:52:01.641Z,1.10
2018-07-02T18:54:30.913Z,1.77
2018-07-02T18:57:01.209Z,1.37
2018-07-02T18:59:29.517Z,1.33
2018-07-02T19:01:57.760Z,1.20
2018-07-02T19:04:26.061Z,1.03
2018-07-02T19:06:54.309Z,1.23
2018-07-02T19:09:23.620Z,1.00
2018-07-02T19:11:52.908Z,1.40
2018-07-02T19:14:21.180Z,1.30
2018-07-02T19:16:49.459Z,1.10
2018-07-02T19:19:18.832Z,1.20
2018-07-02T19:21:47.071Z,1.30
2018-07-02T19:24:15.325Z,1.73
2018-07-02T19:26:43.594Z,0.90
2018-07-02T19:29:11.865Z,1.00
2018-07-02T19:31:40.241Z,1.10
2018-07-02T19:34:09.517Z,1.27
2018-07-02T19:36:37.863Z,0.90
2018-07-02T19:39:10.616Z,1.20
2018-07-02T19:41:38.893Z,1.10
2018-07-02T19:44:07.168Z,1.00
2018-07-02T19:46:36.601Z,1.00
2018-07-02T19:49:04.949Z,1.00
2018-07-02T19:51:35.313Z,1.17
2018-07-02T19:54:03.861Z,0.93
2018-07-02T19:56:33.176Z,0.80
2018-07-02T19:59:01.429Z,1.03
2018-07-02T20:01:29.801Z,1.23
2018-07-02T20:03:58.149Z,0.80
2018-07-02T20:06:27.731Z,1.33
2018-07-02T20:08:56.001Z,1.30
2018-07-02T20:11:24.685Z,0.70
2018-07-02T20:13:53.070Z,1.23
2018-07-02T20:16:21.333Z,0.80
2018-07-02T20:18:49.666Z,1.30
2018-07-02T20:21:17.876Z,0.90
2018-07-02T20:23:46.183Z,0.80
2018-07-02T20:26:14.460Z,0.83
2018-07-02T20:28:42.853Z,1.10
2018-07-02T20:31:11.122Z,1.07
2018-07-02T20:33:40.465Z,1.00
2018-07-02T20:36:08.752Z,1.03
2018-07-02T20:38:37.033Z,1.30
2018-07-02T20:41:05.337Z,0.93
2018-07-02T20:43:33.594Z,1.20
2018-07-02T20:46:01.964Z,1.17
2018-07-02T20:48:30.669Z,1.03
2018-07-02T20:50:58.927Z,1.10
2018-07-02T20:53:27.208Z,0.90
2018-07-02T20:55:55.492Z,1.40
2018-07-02T20:58:23.792Z,0.80
2018-07-02T21:00:52.085Z,1.13
2018-07-02T21:03:20.417Z,1.20
2018-07-02T21:05:48.669Z,1.20
2018-07-02T21:08:16.953Z,1.40
2018-07-02T21:10:46.249Z,1.20
2018-07-02T21:13:14.598Z,1.20
2018-07-02T21:15:42.891Z,1.33
2018-07-02T21:18:11.145Z,1.20
2018-07-02T21:20:39.437Z,1.53
2018-07-02T21:23:07.705Z,1.10
2018-07-02T21:25:35.980Z,1.07
2018-07-02T21:28:04.281Z,0.70
2018-07-02T21:30:32.600Z,1.10
2018-07-02T21:33:00.881Z,1.20
2018-07-02T21:35:29.165Z,0.90
2018-07-02T21:37:57.482Z,0.93
2018-07-02T21:40:25.769Z,0.90
2018-07-02T21:42:54.030Z,1.17
2018-07-02T21:45:22.323Z,1.00
2018-07-02T21:47:50.592Z,0.90
2018-07-02T21:50:18.889Z,1.10
2018-07-02T21:52:47.210Z,1.07
2018-07-02T21:55:15.492Z,1.07
2018-07-02T21:57:43.749Z,1.20
2018-07-02T22:00:13.653Z,0.87
2018-07-02T22:02:42.106Z,0.90
2018-07-02T22:05:10.610Z,0.83
2018-07-02T22:07:41.023Z,1.10
2018-07-02T22:10:09.590Z,0.90
2018-07-02T22:12:38.350Z,1.00
2018-07-02T22:15:07.657Z,1.10
2018-07-02T22:17:35.921Z,1.00
2018-07-02T22:20:04.617Z,1.00
2018-07-02T22:22:32.902Z,1.00
2018-07-02T22:25:02.170Z,1.37
2018-07-02T22:27:30.467Z,1.10
2018-07-02T22:29:58.733Z,1.50
2018-07-02T22:32:26.976Z,0.80
2018-07-02T22:34:55.241Z,0.90
2018-07-02T22:37:23.494Z,1.13
2018-07-02T22:39:51.740Z,1.07
2018-07-02T22:42:20.106Z,0.90
2018-07-02T22:44:48.383Z,1.47
2018-07-02T22:47:16.624Z,0.90
2018-07-02T22:49:44.950Z,1.03
2018-07-02T22:52:13.201Z,1.00
2018-07-02T22:54:41.460Z,0.93
2018-07-02T22:57:09.758Z,0.83
2018-07-02T22:59:38.006Z,0.93
2018-07-02T23:02:07.349Z,0.70
2018-07-02T23:04:35.644Z,1.20
2018-07-02T23:07:06.052Z,1.40
2018-07-02T23:09:34.341Z,1.03
2018-07-02T23:12:02.629Z,1.23
2018-07-02T23:14:30.933Z,0.77
2018-07-02T23:16:59.185Z,1.10
2018-07-02T23:19:28.573Z,1.37
2018-07-02T23:21:56.836Z,1.37
2018-07-02T23:24:25.126Z,1.07
2018-07-02T23:26:54.394Z,1.10
2018-07-02T23:29:22.695Z,1.33
2018-07-02T23:31:50.965Z,1.10
2018-07-02T23:34:19.352Z,0.93
2018-07-02T23:36:47.741Z,1.40
2018-07-02T23:39:16.205Z,1.32
2018-07-02T23:41:44.704Z,1.10
2018-07-02T23:44:12.953Z,1.13
2018-07-02T23:46:41.280Z,1.07
2018-07-02T23:49:09.613Z,1.10
2018-07-02T23:51:37.914Z,1.47
2018-07-02T23:54:06.197Z,1.57
2018-07-02T23:56:34.501Z,1.13
2018-07-02T23:59:03.826Z,1.00
